sensor_id;sensor_type;location;lat;lon;timestamp;temperature;humidity
34099;DHT22;20374;49.474;10.944;2023-06-22T00:02:21;18.80;99.90
34099;DHT22;20374;49.474;10.944;2023-06-22T00:04:47;18.80;99.90
34099;DHT22;20374;49.474;10.944;2023-06-22T00:07:13;18.70;99.90
34099;DHT22;20374;49.474;10.944;2023-06-22T00:09:39;18.70;99.90
34099;DHT22;20374;49.474;10.944;2023-06-22T00:12:05;18.70;99.90
34099;DHT22;20374;49.474;10.944;2023-06-22T00:14:31;18.70;99.90
34099;DHT22;20374;49.474;10.944;2023-06-22T00:16:57;18.60;99.90
34099;DHT22;20374;49.474;10.944;2023-06-22T00:19:25;18.60;99.90
34099;DHT22;20374;49.474;10.944;2023-06-22T00:21:51;18.40;99.90
34099;DHT22;20374;49.474;10.944;2023-06-22T00:24:20;18.50;99.90
34099;DHT22;20374;49.474;10.944;2023-06-22T00:26:48;18.50;99.90
34099;DHT22;20374;49.474;10.944;2023-06-22T00:29:15;18.50;99.90
34099;DHT22;20374;49.474;10.944;2023-06-22T00:31:41;18.50;99.90
34099;DHT22;20374;49.474;10.944;2023-06-22T00:34:08;18.50;99.90
34099;DHT22;20374;49.474;10.944;2023-06-22T00:36:35;18.40;99.90
34099;DHT22;20374;49.474;10.944;2023-06-22T00:39:03;18.40;99.90
34099;DHT22;20374;49.474;10.944;2023-06-22T00:41:29;18.40;99.90
34099;DHT22;20374;49.474;10.944;2023-06-22T00:43:56;18.40;99.90
34099;DHT22;20374;49.474;10.944;2023-06-22T00:46:24;18.40;99.90
34099;DHT22;20374;49.474;10.944;2023-06-22T00:48:51;18.30;99.90
34099;DHT22;20374;49.474;10.944;2023-06-22T00:51:18;18.30;99.90
34099;DHT22;20374;49.474;10.944;2023-06-22T00:53:46;18.30;99.90
34099;DHT22;20374;49.474;10.944;2023-06-22T00:56:12;18.30;99.90
34099;DHT22;20374;49.474;10.944;2023-06-22T00:58:38;18.40;99.90
34099;DHT22;20374;49.474;10.944;2023-06-22T01:01:07;18.40;99.90
34099;DHT22;20374;49.474;10.944;2023-06-22T01:03:33;18.30;99.90
34099;DHT22;20374;49.474;10.944;2023-06-22T01:06:07;18.30;99.90
34099;DHT22;20374;49.474;10.944;2023-06-22T01:08:57;18.20;99.90
34099;DHT22;20374;49.474;10.944;2023-06-22T01:11:39;18.20;99.90
34099;DHT22;20374;49.474;10.944;2023-06-22T01:17:00;18.20;99.90
34099;DHT22;20374;49.474;10.944;2023-06-22T01:22:03;18.10;99.90
34099;DHT22;20374;49.474;10.944;2023-06-22T01:25:06;18.10;99.90
34099;DHT22;20374;49.474;10.944;2023-06-22T01:27:40;18.10;99.90
34099;DHT22;20374;49.474;10.944;2023-06-22T01:30:12;18.10;99.90
34099;DHT22;20374;49.474;10.944;2023-06-22T01:32:40;18.00;99.90
34099;DHT22;20374;49.474;10.944;2023-06-22T01:35:07;18.00;99.90
34099;DHT22;20374;49.474;10.944;2023-06-22T01:37:35;18.00;99.90
34099;DHT22;20374;49.474;10.944;2023-06-22T01:40:02;17.90;99.90
34099;DHT22;20374;49.474;10.944;2023-06-22T01:42:31;17.90;99.90
34099;DHT22;20374;49.474;10.944;2023-06-22T01:44:58;17.90;99.90
34099;DHT22;20374;49.474;10.944;2023-06-22T01:47:25;17.90;99.90
34099;DHT22;20374;49.474;10.944;2023-06-22T01:49:53;17.90;99.90
34099;DHT22;20374;49.474;10.944;2023-06-22T01:52:20;17.90;99.90
34099;DHT22;20374;49.474;10.944;2023-06-22T01:54:48;17.80;99.90
34099;DHT22;20374;49.474;10.944;2023-06-22T01:57:15;17.80;99.90
34099;DHT22;20374;49.474;10.944;2023-06-22T01:59:58;17.80;99.90
34099;DHT22;20374;49.474;10.944;2023-06-22T02:02:28;17.80;99.90
34099;DHT22;20374;49.474;10.944;2023-06-22T02:05:05;17.80;99.90
34099;DHT22;20374;49.474;10.944;2023-06-22T02:07:36;17.80;99.90
34099;DHT22;20374;49.474;10.944;2023-06-22T02:10:02;17.70;99.90
34099;DHT22;20374;49.474;10.944;2023-06-22T02:12:30;17.80;99.90
34099;DHT22;20374;49.474;10.944;2023-06-22T02:14:57;17.80;99.90
34099;DHT22;20374;49.474;10.944;2023-06-22T02:17:24;17.80;99.90
34099;DHT22;20374;49.474;10.944;2023-06-22T02:19:53;17.70;99.90
34099;DHT22;20374;49.474;10.944;2023-06-22T02:22:19;17.70;99.90
34099;DHT22;20374;49.474;10.944;2023-06-22T02:24:45;17.60;99.90
34099;DHT22;20374;49.474;10.944;2023-06-22T02:27:11;17.60;99.90
34099;DHT22;20374;49.474;10.944;2023-06-22T02:29:38;17.60;99.90
34099;DHT22;20374;49.474;10.944;2023-06-22T02:32:04;17.60;99.90
34099;DHT22;20374;49.474;10.944;2023-06-22T02:34:30;17.60;99.90
34099;DHT22;20374;49.474;10.944;2023-06-22T02:36:55;17.50;99.90
34099;DHT22;20374;49.474;10.944;2023-06-22T02:39:23;17.60;99.90
34099;DHT22;20374;49.474;10.944;2023-06-22T02:41:50;17.50;99.90
34099;DHT22;20374;49.474;10.944;2023-06-22T02:44:16;17.50;99.90
34099;DHT22;20374;49.474;10.944;2023-06-22T02:46:43;17.60;99.90
34099;DHT22;20374;49.474;10.944;2023-06-22T02:49:09;17.60;99.90
34099;DHT22;20374;49.474;10.944;2023-06-22T02:51:38;17.60;99.90
34099;DHT22;20374;49.474;10.944;2023-06-22T02:54:07;17.60;99.90
34099;DHT22;20374;49.474;10.944;2023-06-22T02:56:33;17.60;99.90
34099;DHT22;20374;49.474;10.944;2023-06-22T02:59:00;17.60;99.90
34099;DHT22;20374;49.474;10.944;2023-06-22T03:01:30;17.60;99.90
34099;DHT22;20374;49.474;10.944;2023-06-22T03:04:07;17.50;99.90
34099;DHT22;20374;49.474;10.944;2023-06-22T03:06:34;17.50;99.90
34099;DHT22;20374;49.474;10.944;2023-06-22T03:09:02;17.50;99.90
34099;DHT22;20374;49.474;10.944;2023-06-22T03:11:33;17.50;99.90
34099;DHT22;20374;49.474;10.944;2023-06-22T03:14:00;17.40;99.90
34099;DHT22;20374;49.474;10.944;2023-06-22T03:16:27;17.40;99.90
34099;DHT22;20374;49.474;10.944;2023-06-22T03:18:55;17.40;99.90
34099;DHT22;20374;49.474;10.944;2023-06-22T03:21:28;17.40;99.90
34099;DHT22;20374;49.474;10.944;2023-06-22T03:23:54;17.30;99.90
34099;DHT22;20374;49.474;10.944;2023-06-22T03:26:21;17.40;99.90
34099;DHT22;20374;49.474;10.944;2023-06-22T03:28:47;17.40;99.90
34099;DHT22;20374;49.474;10.944;2023-06-22T03:31:13;17.30;99.90
34099;DHT22;20374;49.474;10.944;2023-06-22T03:33:40;17.30;99.90
34099;DHT22;20374;49.474;10.944;2023-06-22T03:36:06;17.30;99.90
34099;DHT22;20374;49.474;10.944;2023-06-22T03:38:32;17.30;99.90
34099;DHT22;20374;49.474;10.944;2023-06-22T03:40:58;17.30;99.90
34099;DHT22;20374;49.474;10.944;2023-06-22T03:43:25;17.30;99.90
34099;DHT22;20374;49.474;10.944;2023-06-22T03:45:51;17.40;99.90
34099;DHT22;20374;49.474;10.944;2023-06-22T03:48:17;17.40;99.90
34099;DHT22;20374;49.474;10.944;2023-06-22T03:50:43;17.40;99.90
34099;DHT22;20374;49.474;10.944;2023-06-22T03:53:09;17.40;99.90
34099;DHT22;20374;49.474;10.944;2023-06-22T03:55:36;17.40;99.90
34099;DHT22;20374;49.474;10.944;2023-06-22T03:58:02;17.50;99.90
34099;DHT22;20374;49.474;10.944;2023-06-22T04:00:32;17.50;99.90
34099;DHT22;20374;49.474;10.944;2023-06-22T04:02:58;17.50;99.90
34099;DHT22;20374;49.474;10.944;2023-06-22T04:05:23;17.50;99.90
34099;DHT22;20374;49.474;10.944;2023-06-22T04:07:50;17.60;99.90
34099;DHT22;20374;49.474;10.944;2023-06-22T04:10:16;17.70;99.90
34099;DHT22;20374;49.474;10.944;2023-06-22T04:12:41;17.80;99.90
34099;DHT22;20374;49.474;10.944;2023-06-22T04:15:08;17.80;99.90
34099;DHT22;20374;49.474;10.944;2023-06-22T04:17:34;17.90;99.90
34099;DHT22;20374;49.474;10.944;2023-06-22T04:20:00;18.00;99.90
34099;DHT22;20374;49.474;10.944;2023-06-22T04:22:25;18.10;99.90
34099;DHT22;20374;49.474;10.944;2023-06-22T04:24:51;18.10;99.90
34099;DHT22;20374;49.474;10.944;2023-06-22T04:27:18;18.20;99.90
34099;DHT22;20374;49.474;10.944;2023-06-22T04:29:45;18.30;99.90
34099;DHT22;20374;49.474;10.944;2023-06-22T04:32:15;18.60;99.90
34099;DHT22;20374;49.474;10.944;2023-06-22T04:34:41;18.90;99.90
34099;DHT22;20374;49.474;10.944;2023-06-22T04:37:07;19.20;99.90
34099;DHT22;20374;49.474;10.944;2023-06-22T04:39:33;19.50;99.90
34099;DHT22;20374;49.474;10.944;2023-06-22T04:41:59;19.90;99.90
34099;DHT22;20374;49.474;10.944;2023-06-22T04:44:26;20.20;99.90
34099;DHT22;20374;49.474;10.944;2023-06-22T04:47:00;20.50;99.90
34099;DHT22;20374;49.474;10.944;2023-06-22T04:49:28;20.60;99.90
34099;DHT22;20374;49.474;10.944;2023-06-22T04:52:05;20.70;99.90
34099;DHT22;20374;49.474;10.944;2023-06-22T04:54:31;20.70;99.90
34099;DHT22;20374;49.474;10.944;2023-06-22T04:57:02;20.80;99.90
34099;DHT22;20374;49.474;10.944;2023-06-22T04:59:30;21.10;99.90
34099;DHT22;20374;49.474;10.944;2023-06-22T05:02:00;21.20;99.90
34099;DHT22;20374;49.474;10.944;2023-06-22T05:04:30;21.20;99.90
34099;DHT22;20374;49.474;10.944;2023-06-22T05:07:01;21.20;99.90
34099;DHT22;20374;49.474;10.944;2023-06-22T05:09:28;21.20;99.90
34099;DHT22;20374;49.474;10.944;2023-06-22T05:11:54;21.00;99.90
34099;DHT22;20374;49.474;10.944;2023-06-22T05:14:22;21.00;99.90
34099;DHT22;20374;49.474;10.944;2023-06-22T05:16:48;21.30;99.90
34099;DHT22;20374;49.474;10.944;2023-06-22T05:19:15;21.70;99.90
34099;DHT22;20374;49.474;10.944;2023-06-22T05:21:40;22.10;99.90
34099;DHT22;20374;49.474;10.944;2023-06-22T05:24:07;22.50;99.90
34099;DHT22;20374;49.474;10.944;2023-06-22T05:26:34;22.50;99.90
34099;DHT22;20374;49.474;10.944;2023-06-22T05:29:01;22.60;99.90
34099;DHT22;20374;49.474;10.944;2023-06-22T05:31:28;22.60;99.90
34099;DHT22;20374;49.474;10.944;2023-06-22T05:33:55;22.40;99.90
34099;DHT22;20374;49.474;10.944;2023-06-22T05:36:21;22.50;99.90
34099;DHT22;20374;49.474;10.944;2023-06-22T05:38:51;22.60;99.90
34099;DHT22;20374;49.474;10.944;2023-06-22T05:41:18;22.90;99.90
34099;DHT22;20374;49.474;10.944;2023-06-22T05:43:43;23.50;99.90
34099;DHT22;20374;49.474;10.944;2023-06-22T05:46:09;23.80;99.90
34099;DHT22;20374;49.474;10.944;2023-06-22T05:48:35;24.00;99.90
34099;DHT22;20374;49.474;10.944;2023-06-22T05:51:01;23.90;99.90
34099;DHT22;20374;49.474;10.944;2023-06-22T05:53:27;23.60;99.90
34099;DHT22;20374;49.474;10.944;2023-06-22T05:55:53;23.40;99.90
34099;DHT22;20374;49.474;10.944;2023-06-22T05:58:19;23.00;99.90
34099;DHT22;20374;49.474;10.944;2023-06-22T06:00:45;22.70;99.90
34099;DHT22;20374;49.474;10.944;2023-06-22T06:03:11;22.50;99.90
34099;DHT22;20374;49.474;10.944;2023-06-22T06:05:37;22.40;99.90
34099;DHT22;20374;49.474;10.944;2023-06-22T06:08:05;22.50;99.90
34099;DHT22;20374;49.474;10.944;2023-06-22T06:10:32;22.50;99.90
34099;DHT22;20374;49.474;10.944;2023-06-22T06:12:59;22.50;99.90
34099;DHT22;20374;49.474;10.944;2023-06-22T06:15:28;22.50;99.90
34099;DHT22;20374;49.474;10.944;2023-06-22T06:17:54;22.50;99.90
34099;DHT22;20374;49.474;10.944;2023-06-22T06:20:22;22.70;99.90
34099;DHT22;20374;49.474;10.944;2023-06-22T06:22:48;22.80;99.90
34099;DHT22;20374;49.474;10.944;2023-06-22T06:25:14;22.90;99.90
34099;DHT22;20374;49.474;10.944;2023-06-22T06:27:50;23.00;99.90
34099;DHT22;20374;49.474;10.944;2023-06-22T06:30:18;23.10;99.90
34099;DHT22;20374;49.474;10.944;2023-06-22T06:32:45;23.20;99.90
34099;DHT22;20374;49.474;10.944;2023-06-22T06:35:13;23.10;99.90
34099;DHT22;20374;49.474;10.944;2023-06-22T06:37:47;23.30;99.90
34099;DHT22;20374;49.474;10.944;2023-06-22T06:40:15;23.30;99.90
34099;DHT22;20374;49.474;10.944;2023-06-22T06:42:43;23.40;99.90
34099;DHT22;20374;49.474;10.944;2023-06-22T06:45:11;23.70;99.90
34099;DHT22;20374;49.474;10.944;2023-06-22T06:47:38;23.80;99.90
34099;DHT22;20374;49.474;10.944;2023-06-22T06:50:05;24.00;99.90
34099;DHT22;20374;49.474;10.944;2023-06-22T06:52:31;24.20;99.90
34099;DHT22;20374;49.474;10.944;2023-06-22T06:54:57;24.50;99.90
34099;DHT22;20374;49.474;10.944;2023-06-22T06:57:23;24.80;99.90
34099;DHT22;20374;49.474;10.944;2023-06-22T06:59:49;24.90;99.90
34099;DHT22;20374;49.474;10.944;2023-06-22T07:02:18;25.00;99.90
34099;DHT22;20374;49.474;10.944;2023-06-22T07:04:44;25.20;99.90
34099;DHT22;20374;49.474;10.944;2023-06-22T07:07:10;25.40;99.90
34099;DHT22;20374;49.474;10.944;2023-06-22T07:09:36;25.70;99.90
34099;DHT22;20374;49.474;10.944;2023-06-22T07:12:02;26.00;99.90
34099;DHT22;20374;49.474;10.944;2023-06-22T07:14:28;26.50;99.90
34099;DHT22;20374;49.474;10.944;2023-06-22T07:16:54;26.60;99.90
34099;DHT22;20374;49.474;10.944;2023-06-22T07:19:27;26.70;99.90
34099;DHT22;20374;49.474;10.944;2023-06-22T07:21:55;26.50;99.90
34099;DHT22;20374;49.474;10.944;2023-06-22T07:24:22;26.60;99.90
34099;DHT22;20374;49.474;10.944;2023-06-22T07:26:49;26.60;99.90
34099;DHT22;20374;49.474;10.944;2023-06-22T07:29:19;26.80;99.90
34099;DHT22;20374;49.474;10.944;2023-06-22T07:31:47;26.60;99.90
34099;DHT22;20374;49.474;10.944;2023-06-22T07:34:13;26.80;99.90
34099;DHT22;20374;49.474;10.944;2023-06-22T07:36:39;27.10;99.90
34099;DHT22;20374;49.474;10.944;2023-06-22T07:39:05;27.10;99.90
34099;DHT22;20374;49.474;10.944;2023-06-22T07:44:59;26.90;99.90
34099;DHT22;20374;49.474;10.944;2023-06-22T07:47:27;26.70;99.90
34099;DHT22;20374;49.474;10.944;2023-06-22T07:49:58;26.60;99.90
34099;DHT22;20374;49.474;10.944;2023-06-22T07:52:29;26.70;99.90
34099;DHT22;20374;49.474;10.944;2023-06-22T07:54:55;27.00;99.90
34099;DHT22;20374;49.474;10.944;2023-06-22T07:57:21;27.20;99.90
34099;DHT22;20374;49.474;10.944;2023-06-22T07:59:47;27.40;99.90
34099;DHT22;20374;49.474;10.944;2023-06-22T08:02:13;27.50;99.90
34099;DHT22;20374;49.474;10.944;2023-06-22T08:04:41;27.50;99.90
34099;DHT22;20374;49.474;10.944;2023-06-22T08:07:07;27.50;99.90
34099;DHT22;20374;49.474;10.944;2023-06-22T08:09:36;27.50;99.90
34099;DHT22;20374;49.474;10.944;2023-06-22T08:12:02;28.00;99.00
34099;DHT22;20374;49.474;10.944;2023-06-22T08:14:30;28.50;98.20
34099;DHT22;20374;49.474;10.944;2023-06-22T08:16:55;28.60;97.60
34099;DHT22;20374;49.474;10.944;2023-06-22T08:19:21;28.60;97.20
34099;DHT22;20374;49.474;10.944;2023-06-22T08:21:47;28.70;96.40
34099;DHT22;20374;49.474;10.944;2023-06-22T08:24:13;28.60;96.50
34099;DHT22;20374;49.474;10.944;2023-06-22T08:26:43;28.70;97.80
34099;DHT22;20374;49.474;10.944;2023-06-22T08:29:09;28.30;97.90
34099;DHT22;20374;49.474;10.944;2023-06-22T08:31:35;28.10;96.80
34099;DHT22;20374;49.474;10.944;2023-06-22T08:34:01;28.00;97.50
34099;DHT22;20374;49.474;10.944;2023-06-22T08:36:26;28.00;97.00
34099;DHT22;20374;49.474;10.944;2023-06-22T08:38:55;28.00;97.40
34099;DHT22;20374;49.474;10.944;2023-06-22T08:41:27;28.00;97.00
34099;DHT22;20374;49.474;10.944;2023-06-22T08:43:53;27.90;96.20
34099;DHT22;20374;49.474;10.944;2023-06-22T08:46:19;27.90;95.80
34099;DHT22;20374;49.474;10.944;2023-06-22T08:48:49;27.80;95.50
34099;DHT22;20374;49.474;10.944;2023-06-22T08:51:16;27.80;96.60
34099;DHT22;20374;49.474;10.944;2023-06-22T08:53:42;28.00;95.90
34099;DHT22;20374;49.474;10.944;2023-06-22T08:56:10;28.20;95.00
34099;DHT22;20374;49.474;10.944;2023-06-22T08:58:36;28.30;94.70
34099;DHT22;20374;49.474;10.944;2023-06-22T09:01:02;28.50;94.50
34099;DHT22;20374;49.474;10.944;2023-06-22T09:03:28;28.70;94.50
34099;DHT22;20374;49.474;10.944;2023-06-22T09:05:54;28.90;94.70
34099;DHT22;20374;49.474;10.944;2023-06-22T09:08:20;29.00;94.90
34099;DHT22;20374;49.474;10.944;2023-06-22T09:10:45;29.00;93.20
34099;DHT22;20374;49.474;10.944;2023-06-22T09:13:11;29.20;93.20
34099;DHT22;20374;49.474;10.944;2023-06-22T09:15:37;29.60;93.10
34099;DHT22;20374;49.474;10.944;2023-06-22T09:18:03;29.70;92.60
34099;DHT22;20374;49.474;10.944;2023-06-22T09:20:29;29.90;91.90
34099;DHT22;20374;49.474;10.944;2023-06-22T09:22:55;30.10;91.20
34099;DHT22;20374;49.474;10.944;2023-06-22T09:25:20;30.20;91.20
34099;DHT22;20374;49.474;10.944;2023-06-22T09:27:47;30.30;90.80
34099;DHT22;20374;49.474;10.944;2023-06-22T09:30:13;30.70;90.00
34099;DHT22;20374;49.474;10.944;2023-06-22T09:32:39;31.30;88.20
34099;DHT22;20374;49.474;10.944;2023-06-22T09:35:05;31.60;87.90
34099;DHT22;20374;49.474;10.944;2023-06-22T09:37:32;32.10;86.10
34099;DHT22;20374;49.474;10.944;2023-06-22T09:39:58;32.60;83.90
34099;DHT22;20374;49.474;10.944;2023-06-22T09:42:24;32.90;81.00
34099;DHT22;20374;49.474;10.944;2023-06-22T09:44:49;33.10;80.00
34099;DHT22;20374;49.474;10.944;2023-06-22T09:47:15;33.80;79.80
34099;DHT22;20374;49.474;10.944;2023-06-22T09:49:41;34.20;76.90
34099;DHT22;20374;49.474;10.944;2023-06-22T09:52:07;34.20;76.60
34099;DHT22;20374;49.474;10.944;2023-06-22T09:54:33;34.80;74.80
34099;DHT22;20374;49.474;10.944;2023-06-22T09:56:59;35.00;74.00
34099;DHT22;20374;49.474;10.944;2023-06-22T09:59:25;35.20;70.10
34099;DHT22;20374;49.474;10.944;2023-06-22T10:01:50;35.30;71.40
34099;DHT22;20374;49.474;10.944;2023-06-22T10:04:16;35.50;69.40
34099;DHT22;20374;49.474;10.944;2023-06-22T10:06:42;35.40;70.40
34099;DHT22;20374;49.474;10.944;2023-06-22T10:09:08;35.30;69.30
34099;DHT22;20374;49.474;10.944;2023-06-22T10:11:34;35.70;68.30
34099;DHT22;20374;49.474;10.944;2023-06-22T10:14:01;35.80;67.70
34099;DHT22;20374;49.474;10.944;2023-06-22T10:16:33;36.10;66.70
34099;DHT22;20374;49.474;10.944;2023-06-22T10:19:01;36.40;63.20
34099;DHT22;20374;49.474;10.944;2023-06-22T10:21:27;36.20;65.90
34099;DHT22;20374;49.474;10.944;2023-06-22T10:23:54;36.80;64.10
34099;DHT22;20374;49.474;10.944;2023-06-22T10:26:21;37.00;64.90
34099;DHT22;20374;49.474;10.944;2023-06-22T10:28:47;37.20;63.10
34099;DHT22;20374;49.474;10.944;2023-06-22T10:31:13;36.80;62.00
34099;DHT22;20374;49.474;10.944;2023-06-22T10:33:39;36.40;63.70
34099;DHT22;20374;49.474;10.944;2023-06-22T10:36:07;36.60;60.20
34099;DHT22;20374;49.474;10.944;2023-06-22T10:38:32;37.20;61.40
34099;DHT22;20374;49.474;10.944;2023-06-22T10:40:58;37.30;59.70
34099;DHT22;20374;49.474;10.944;2023-06-22T10:43:24;37.30;59.70
34099;DHT22;20374;49.474;10.944;2023-06-22T10:45:50;37.60;59.10
34099;DHT22;20374;49.474;10.944;2023-06-22T10:48:16;38.00;58.10
34099;DHT22;20374;49.474;10.944;2023-06-22T10:50:41;38.10;59.50
34099;DHT22;20374;49.474;10.944;2023-06-22T10:53:07;38.20;58.60
34099;DHT22;20374;49.474;10.944;2023-06-22T10:55:33;38.70;58.00
34099;DHT22;20374;49.474;10.944;2023-06-22T10:57:59;38.70;57.50
34099;DHT22;20374;49.474;10.944;2023-06-22T11:00:25;38.30;57.30
34099;DHT22;20374;49.474;10.944;2023-06-22T11:02:51;38.20;57.50
34099;DHT22;20374;49.474;10.944;2023-06-22T11:05:17;38.50;57.20
34099;DHT22;20374;49.474;10.944;2023-06-22T11:07:43;38.40;56.10
34099;DHT22;20374;49.474;10.944;2023-06-22T11:10:11;38.20;56.80
34099;DHT22;20374;49.474;10.944;2023-06-22T11:12:37;38.00;57.10
34099;DHT22;20374;49.474;10.944;2023-06-22T11:15:03;37.70;57.10
34099;DHT22;20374;49.474;10.944;2023-06-22T11:17:29;37.50;58.00
34099;DHT22;20374;49.474;10.944;2023-06-22T11:19:55;37.60;57.30
34099;DHT22;20374;49.474;10.944;2023-06-22T11:22:21;37.70;56.90
34099;DHT22;20374;49.474;10.944;2023-06-22T11:24:46;37.70;58.20
34099;DHT22;20374;49.474;10.944;2023-06-22T11:27:12;38.00;56.90
34099;DHT22;20374;49.474;10.944;2023-06-22T11:29:38;37.70;58.10
34099;DHT22;20374;49.474;10.944;2023-06-22T11:32:06;38.00;57.10
34099;DHT22;20374;49.474;10.944;2023-06-22T11:34:32;38.20;56.60
34099;DHT22;20374;49.474;10.944;2023-06-22T11:36:58;38.50;56.20
34099;DHT22;20374;49.474;10.944;2023-06-22T11:39:24;38.40;56.70
34099;DHT22;20374;49.474;10.944;2023-06-22T11:41:50;38.80;55.20
34099;DHT22;20374;49.474;10.944;2023-06-22T11:44:16;38.40;56.00
34099;DHT22;20374;49.474;10.944;2023-06-22T11:46:41;38.40;54.40
34099;DHT22;20374;49.474;10.944;2023-06-22T11:49:08;38.20;55.90
34099;DHT22;20374;49.474;10.944;2023-06-22T11:51:34;38.30;55.00
34099;DHT22;20374;49.474;10.944;2023-06-22T11:54:00;38.30;55.70
34099;DHT22;20374;49.474;10.944;2023-06-22T11:56:26;38.70;55.80
34099;DHT22;20374;49.474;10.944;2023-06-22T11:58:53;38.70;55.20
34099;DHT22;20374;49.474;10.944;2023-06-22T12:01:19;38.80;55.10
34099;DHT22;20374;49.474;10.944;2023-06-22T12:03:45;39.00;54.60
34099;DHT22;20374;49.474;10.944;2023-06-22T12:06:11;38.70;53.60
34099;DHT22;20374;49.474;10.944;2023-06-22T12:08:37;38.60;53.50
34099;DHT22;20374;49.474;10.944;2023-06-22T12:11:03;38.00;54.10
34099;DHT22;20374;49.474;10.944;2023-06-22T12:13:29;37.60;55.10
34099;DHT22;20374;49.474;10.944;2023-06-22T12:15:55;37.70;55.40
34099;DHT22;20374;49.474;10.944;2023-06-22T12:18:20;38.10;54.80
34099;DHT22;20374;49.474;10.944;2023-06-22T12:20:47;37.50;54.20
34099;DHT22;20374;49.474;10.944;2023-06-22T12:23:14;36.80;54.90
34099;DHT22;20374;49.474;10.944;2023-06-22T12:25:40;36.40;55.60
34099;DHT22;20374;49.474;10.944;2023-06-22T12:28:06;36.10;56.40
34099;DHT22;20374;49.474;10.944;2023-06-22T12:30:33;35.50;56.90
34099;DHT22;20374;49.474;10.944;2023-06-22T12:32:59;35.20;58.30
34099;DHT22;20374;49.474;10.944;2023-06-22T12:35:25;35.20;58.20
34099;DHT22;20374;49.474;10.944;2023-06-22T12:37:50;35.10;58.20
34099;DHT22;20374;49.474;10.944;2023-06-22T12:40:16;35.10;59.20
34099;DHT22;20374;49.474;10.944;2023-06-22T12:42:42;35.50;58.90
34099;DHT22;20374;49.474;10.944;2023-06-22T12:45:08;36.10;57.10
34099;DHT22;20374;49.474;10.944;2023-06-22T12:47:35;36.20;56.60
34099;DHT22;20374;49.474;10.944;2023-06-22T12:50:00;36.60;57.20
34099;DHT22;20374;49.474;10.944;2023-06-22T12:52:26;37.20;57.30
34099;DHT22;20374;49.474;10.944;2023-06-22T12:54:52;37.40;56.40
34099;DHT22;20374;49.474;10.944;2023-06-22T12:57:19;37.50;55.90
34099;DHT22;20374;49.474;10.944;2023-06-22T12:59:45;37.70;55.70
34099;DHT22;20374;49.474;10.944;2023-06-22T13:02:11;37.50;55.70
34099;DHT22;20374;49.474;10.944;2023-06-22T13:04:37;37.30;55.80
34099;DHT22;20374;49.474;10.944;2023-06-22T13:07:03;37.20;55.70
34099;DHT22;20374;49.474;10.944;2023-06-22T13:09:29;36.50;55.90
34099;DHT22;20374;49.474;10.944;2023-06-22T13:11:55;36.20;55.40
34099;DHT22;20374;49.474;10.944;2023-06-22T13:14:21;36.00;57.50
34099;DHT22;20374;49.474;10.944;2023-06-22T13:16:46;36.20;57.70
34099;DHT22;20374;49.474;10.944;2023-06-22T13:19:12;36.60;57.00
34099;DHT22;20374;49.474;10.944;2023-06-22T13:21:38;36.80;56.50
34099;DHT22;20374;49.474;10.944;2023-06-22T13:24:04;37.00;56.30
34099;DHT22;20374;49.474;10.944;2023-06-22T13:26:31;37.30;55.80
34099;DHT22;20374;49.474;10.944;2023-06-22T13:28:58;37.40;55.20
34099;DHT22;20374;49.474;10.944;2023-06-22T13:31:24;37.60;55.30
34099;DHT22;20374;49.474;10.944;2023-06-22T13:33:49;37.70;57.10
34099;DHT22;20374;49.474;10.944;2023-06-22T13:36:18;37.70;55.10
34099;DHT22;20374;49.474;10.944;2023-06-22T13:38:43;37.50;55.20
34099;DHT22;20374;49.474;10.944;2023-06-22T13:41:09;37.40;56.20
34099;DHT22;20374;49.474;10.944;2023-06-22T13:43:35;36.70;55.80
34099;DHT22;20374;49.474;10.944;2023-06-22T13:46:01;35.60;55.30
34099;DHT22;20374;49.474;10.944;2023-06-22T13:48:27;35.10;56.00
34099;DHT22;20374;49.474;10.944;2023-06-22T13:50:54;34.70;56.40
34099;DHT22;20374;49.474;10.944;2023-06-22T13:53:20;34.50;56.50
34099;DHT22;20374;49.474;10.944;2023-06-22T13:55:46;34.40;57.10
34099;DHT22;20374;49.474;10.944;2023-06-22T13:58:13;34.40;57.20
34099;DHT22;20374;49.474;10.944;2023-06-22T14:00:39;34.40;56.70
34099;DHT22;20374;49.474;10.944;2023-06-22T14:03:05;34.40;56.30
34099;DHT22;20374;49.474;10.944;2023-06-22T14:05:31;34.40;57.70
34099;DHT22;20374;49.474;10.944;2023-06-22T14:07:57;34.50;57.30
34099;DHT22;20374;49.474;10.944;2023-06-22T14:10:22;34.60;57.40
34099;DHT22;20374;49.474;10.944;2023-06-22T14:12:48;34.70;57.00
34099;DHT22;20374;49.474;10.944;2023-06-22T14:15:14;35.00;58.30
34099;DHT22;20374;49.474;10.944;2023-06-22T14:17:40;35.30;57.30
34099;DHT22;20374;49.474;10.944;2023-06-22T14:20:06;35.20;56.90
34099;DHT22;20374;49.474;10.944;2023-06-22T14:22:34;35.30;58.30
34099;DHT22;20374;49.474;10.944;2023-06-22T14:25:01;35.40;56.80
34099;DHT22;20374;49.474;10.944;2023-06-22T14:27:27;35.20;56.80
34099;DHT22;20374;49.474;10.944;2023-06-22T14:29:53;35.10;56.20
34099;DHT22;20374;49.474;10.944;2023-06-22T14:32:19;35.00;56.80
34099;DHT22;20374;49.474;10.944;2023-06-22T14:34:44;34.90;56.60
34099;DHT22;20374;49.474;10.944;2023-06-22T14:37:10;34.70;56.90
34099;DHT22;20374;49.474;10.944;2023-06-22T14:39:38;34.70;57.40
34099;DHT22;20374;49.474;10.944;2023-06-22T14:42:05;34.70;57.60
34099;DHT22;20374;49.474;10.944;2023-06-22T14:44:31;34.70;57.30
34099;DHT22;20374;49.474;10.944;2023-06-22T14:46:57;34.50;58.00
34099;DHT22;20374;49.474;10.944;2023-06-22T14:49:23;34.40;57.50
34099;DHT22;20374;49.474;10.944;2023-06-22T14:51:49;34.30;57.70
34099;DHT22;20374;49.474;10.944;2023-06-22T14:54:15;34.30;58.30
34099;DHT22;20374;49.474;10.944;2023-06-22T14:56:41;34.40;58.40
34099;DHT22;20374;49.474;10.944;2023-06-22T14:59:08;34.50;59.30
34099;DHT22;20374;49.474;10.944;2023-06-22T15:01:35;34.50;57.10
34099;DHT22;20374;49.474;10.944;2023-06-22T15:04:05;34.40;56.60
34099;DHT22;20374;49.474;10.944;2023-06-22T15:06:31;34.60;56.60
34099;DHT22;20374;49.474;10.944;2023-06-22T15:08:57;34.50;55.90
34099;DHT22;20374;49.474;10.944;2023-06-22T15:11:23;34.60;56.10
34099;DHT22;20374;49.474;10.944;2023-06-22T15:13:49;34.70;56.20
34099;DHT22;20374;49.474;10.944;2023-06-22T15:16:14;34.70;56.00
34099;DHT22;20374;49.474;10.944;2023-06-22T15:18:41;34.70;56.20
34099;DHT22;20374;49.474;10.944;2023-06-22T15:21:07;34.60;56.20
34099;DHT22;20374;49.474;10.944;2023-06-22T15:23:33;34.50;56.50